Haslett, Michigan
Current Conditions -  °F | °C
As of 7:53 PM on Friday 24 Oct 2014 (Local Time) from KLAN Reporting Station
Scattered Clouds Scattered Clouds  
Wind Chill: 56°   Ceiling: Unl
Heat Index: 56°   Visibility: 10mi
Dew Point: 47°   Wind: 3mph
Humidity: 72%   Direction: 260°W
Pressure: 29.99"   Gusts: NA
Location:  42.75°N, 84.41°W
Report Text: KLAN 242353Z 26003KT 10SM SCT039 13/08 A2999 RMK AO2 SLP157 T01330083 10161 20128 53003
Loading
Personal Weather Stations






























Interactive Weather Map
Tropical Storm Tracking
New forecast layout! Learn more

10-Day Weather Forecast

Advertisements
Track Severe Weather on mobile